sensor_id;sensor_type;location;lat;lon;timestamp;pressure;altitude;pressure_sealevel;temperature;humidity
2188;BME280;1100;52.014;8.540;2022-12-18T00:01:18;101449.03;;;-9.44;88.12
2188;BME280;1100;52.014;8.540;2022-12-18T00:03:44;101454.94;;;-9.47;87.83
2188;BME280;1100;52.014;8.540;2022-12-18T00:06:10;101449.00;;;-9.49;87.49
2188;BME280;1100;52.014;8.540;2022-12-18T00:08:39;101444.16;;;-9.52;88.03
2188;BME280;1100;52.014;8.540;2022-12-18T00:11:13;101447.97;;;-9.48;87.85
2188;BME280;1100;52.014;8.540;2022-12-18T00:13:38;101445.50;;;-9.44;88.32
2188;BME280;1100;52.014;8.540;2022-12-18T00:16:07;101443.09;;;-9.46;87.92
2188;BME280;1100;52.014;8.540;2022-12-18T00:18:33;101442.03;;;-9.50;87.58
2188;BME280;1100;52.014;8.540;2022-12-18T00:21:00;101444.16;;;-9.52;87.94
2188;BME280;1100;52.014;8.540;2022-12-18T00:23:27;101443.91;;;-9.56;87.49
2188;BME280;1100;52.014;8.540;2022-12-18T00:25:52;101449.03;;;-9.59;87.51
2188;BME280;1100;52.014;8.540;2022-12-18T00:28:18;101458.44;;;-9.62;87.78
2188;BME280;1100;52.014;8.540;2022-12-18T00:30:44;101452.25;;;-9.73;87.67
2188;BME280;1100;52.014;8.540;2022-12-18T00:33:09;101461.66;;;-9.70;87.54
2188;BME280;1100;52.014;8.540;2022-12-18T00:35:35;101459.50;;;-9.73;87.47
2188;BME280;1100;52.014;8.540;2022-12-18T00:38:00;101450.09;;;-9.76;87.53
2188;BME280;1100;52.014;8.540;2022-12-18T00:40:26;101450.88;;;-9.76;87.81
2188;BME280;1100;52.014;8.540;2022-12-18T00:42:51;101450.88;;;-9.76;87.96
2188;BME280;1100;52.014;8.540;2022-12-18T00:45:28;101458.44;;;-9.78;87.51
2188;BME280;1100;52.014;8.540;2022-12-18T00:47:55;101450.59;;;-9.84;87.91
2188;BME280;1100;52.014;8.540;2022-12-18T00:50:22;101448.44;;;-9.77;87.83
2188;BME280;1100;52.014;8.540;2022-12-18T00:52:51;101445.50;;;-9.76;87.95
2188;BME280;1100;52.014;8.540;2022-12-18T00:55:17;101440.13;;;-9.81;87.89
2188;BME280;1100;52.014;8.540;2022-12-18T00:57:43;101451.16;;;-9.77;87.82
2188;BME280;1100;52.014;8.540;2022-12-18T01:00:11;101449.53;;;-9.78;87.31
2188;BME280;1100;52.014;8.540;2022-12-18T01:02:40;101453.84;;;-9.77;87.66
2188;BME280;1100;52.014;8.540;2022-12-18T01:05:06;101446.31;;;-9.75;87.79
2188;BME280;1100;52.014;8.540;2022-12-18T01:07:32;101443.34;;;-9.79;87.68
2188;BME280;1100;52.014;8.540;2022-12-18T01:10:00;101440.38;;;-9.77;87.72
2188;BME280;1100;52.014;8.540;2022-12-18T01:12:25;101441.47;;;-9.78;87.92
2188;BME280;1100;52.014;8.540;2022-12-18T01:14:51;101438.47;;;-9.82;87.52
2188;BME280;1100;52.014;8.540;2022-12-18T01:17:19;101440.66;;;-9.84;87.66
2188;BME280;1100;52.014;8.540;2022-12-18T01:19:44;101449.78;;;-9.85;87.80
2188;BME280;1100;52.014;8.540;2022-12-18T01:22:10;101444.41;;;-9.85;87.81
2188;BME280;1100;52.014;8.540;2022-12-18T01:24:35;101437.69;;;-9.88;87.62
2188;BME280;1100;52.014;8.540;2022-12-18T01:27:00;101445.19;;;-9.90;87.52
2188;BME280;1100;52.014;8.540;2022-12-18T01:29:26;101442.50;;;-9.90;88.00
2188;BME280;1100;52.014;8.540;2022-12-18T01:31:55;101435.78;;;-9.92;87.83
2188;BME280;1100;52.014;8.540;2022-12-18T01:34:20;101445.19;;;-9.90;87.80
2188;BME280;1100;52.014;8.540;2022-12-18T01:36:46;101444.69;;;-9.92;87.49
2188;BME280;1100;52.014;8.540;2022-12-18T01:39:12;101445.47;;;-9.96;87.57
2188;BME280;1100;52.014;8.540;2022-12-18T01:41:38;101452.19;;;-9.99;87.64
2188;BME280;1100;52.014;8.540;2022-12-18T01:47:23;101452.16;;;-10.09;87.57
2188;BME280;1100;52.014;8.540;2022-12-18T01:49:50;101452.69;;;-10.13;88.01
2188;BME280;1100;52.014;8.540;2022-12-18T01:52:17;101455.66;;;-10.14;87.40
2188;BME280;1100;52.014;8.540;2022-12-18T01:54:43;101453.22;;;-10.16;87.35
2188;BME280;1100;52.014;8.540;2022-12-18T01:57:09;101453.47;;;-10.17;87.55
2188;BME280;1100;52.014;8.540;2022-12-18T01:59:35;101455.34;;;-10.18;87.79
2188;BME280;1100;52.014;8.540;2022-12-18T02:02:02;101446.22;;;-10.22;87.83
2188;BME280;1100;52.014;8.540;2022-12-18T02:04:27;101444.84;;;-10.19;87.42
2188;BME280;1100;52.014;8.540;2022-12-18T02:09:49;101447.56;;;-10.24;87.79
2188;BME280;1100;52.014;8.540;2022-12-18T02:12:42;101456.94;;;-10.27;87.30
2188;BME280;1100;52.014;8.540;2022-12-18T02:17:47;101444.81;;;-10.35;87.49
2188;BME280;1100;52.014;8.540;2022-12-18T02:20:33;101445.63;;;-10.34;87.67
2188;BME280;1100;52.014;8.540;2022-12-18T02:26:06;101458.53;;;-10.31;87.36
2188;BME280;1100;52.014;8.540;2022-12-18T02:28:39;101455.84;;;-10.31;87.71
2188;BME280;1100;52.014;8.540;2022-12-18T02:31:07;101451.56;;;-10.32;87.49
2188;BME280;1100;52.014;8.540;2022-12-18T02:33:35;101450.47;;;-10.31;87.61
2188;BME280;1100;52.014;8.540;2022-12-18T02:36:02;101453.72;;;-10.29;87.43
2188;BME280;1100;52.014;8.540;2022-12-18T02:38:29;101442.41;;;-10.31;87.39
2188;BME280;1100;52.014;8.540;2022-12-18T02:40:56;101437.56;;;-10.34;87.71
2188;BME280;1100;52.014;8.540;2022-12-18T02:43:22;101434.06;;;-10.35;87.39
2188;BME280;1100;52.014;8.540;2022-12-18T02:45:52;101443.19;;;-10.36;87.65
2188;BME280;1100;52.014;8.540;2022-12-18T02:48:22;101441.59;;;-10.37;87.24
2188;BME280;1100;52.014;8.540;2022-12-18T02:50:59;101440.78;;;-10.38;87.51
2188;BME280;1100;52.014;8.540;2022-12-18T02:53:37;101441.31;;;-10.41;87.79
2188;BME280;1100;52.014;8.540;2022-12-18T02:56:29;101438.63;;;-10.46;87.16
2188;BME280;1100;52.014;8.540;2022-12-18T02:59:01;101442.66;;;-10.48;87.20
2188;BME280;1100;52.014;8.540;2022-12-18T03:04:05;101446.16;;;-10.48;86.99
2188;BME280;1100;52.014;8.540;2022-12-18T03:06:46;101449.88;;;-10.49;87.76
2188;BME280;1100;52.014;8.540;2022-12-18T03:09:24;101451.53;;;-10.48;87.77
2188;BME280;1100;52.014;8.540;2022-12-18T03:12:14;101446.41;;;-10.49;87.19
2188;BME280;1100;52.014;8.540;2022-12-18T03:14:52;101445.59;;;-10.50;87.42
2188;BME280;1100;52.014;8.540;2022-12-18T03:17:20;101438.06;;;-10.53;87.31
2188;BME280;1100;52.014;8.540;2022-12-18T03:19:49;101439.41;;;-10.56;87.50
2188;BME280;1100;52.014;8.540;2022-12-18T03:22:17;101451.19;;;-10.57;87.59
2188;BME280;1100;52.014;8.540;2022-12-18T03:24:44;101454.16;;;-10.58;87.49
2188;BME280;1100;52.014;8.540;2022-12-18T03:27:13;101447.16;;;-10.59;87.47
2188;BME280;1100;52.014;8.540;2022-12-18T03:29:44;101449.34;;;-10.56;88.02
2188;BME280;1100;52.014;8.540;2022-12-18T03:32:16;101447.72;;;-10.52;87.69
2188;BME280;1100;52.014;8.540;2022-12-18T03:34:47;101454.22;;;-10.48;87.41
2188;BME280;1100;52.014;8.540;2022-12-18T03:37:15;101449.88;;;-10.49;87.27
2188;BME280;1100;52.014;8.540;2022-12-18T03:39:40;101448.28;;;-10.50;87.26
2188;BME280;1100;52.014;8.540;2022-12-18T03:47:30;101462.00;;;-10.52;87.37
2188;BME280;1100;52.014;8.540;2022-12-18T03:50:20;101467.66;;;-10.48;87.86
2188;BME280;1100;52.014;8.540;2022-12-18T03:52:59;101459.03;;;-10.50;87.43
2188;BME280;1100;52.014;8.540;2022-12-18T03:55:28;101458.22;;;-10.51;87.23
2188;BME280;1100;52.014;8.540;2022-12-18T03:57:56;101454.44;;;-10.55;87.29
2188;BME280;1100;52.014;8.540;2022-12-18T04:00:22;101448.25;;;-10.55;87.64
2188;BME280;1100;52.014;8.540;2022-12-18T04:02:52;101443.97;;;-10.56;87.76
2188;BME280;1100;52.014;8.540;2022-12-18T04:05:20;101436.72;;;-10.56;87.79
2188;BME280;1100;52.014;8.540;2022-12-18T04:07:47;101425.69;;;-10.54;87.52
2188;BME280;1100;52.014;8.540;2022-12-18T04:10:15;101427.00;;;-10.57;87.53
2188;BME280;1100;52.014;8.540;2022-12-18T04:12:42;101445.81;;;-10.57;87.59
2188;BME280;1100;52.014;8.540;2022-12-18T04:15:08;101447.16;;;-10.59;88.02
2188;BME280;1100;52.014;8.540;2022-12-18T04:17:34;101450.41;;;-10.57;87.53
2188;BME280;1100;52.014;8.540;2022-12-18T04:19:59;101450.94;;;-10.55;87.74
2188;BME280;1100;52.014;8.540;2022-12-18T04:22:24;101456.84;;;-10.58;87.71
2188;BME280;1100;52.014;8.540;2022-12-18T04:24:50;101452.53;;;-10.59;88.09
2188;BME280;1100;52.014;8.540;2022-12-18T04:27:15;101448.50;;;-10.57;87.19
2188;BME280;1100;52.014;8.540;2022-12-18T04:29:40;101449.59;;;-10.58;87.58
2188;BME280;1100;52.014;8.540;2022-12-18T04:32:07;101448.78;;;-10.58;87.73
2188;BME280;1100;52.014;8.540;2022-12-18T04:34:32;101457.94;;;-10.54;87.62
2188;BME280;1100;52.014;8.540;2022-12-18T04:36:57;101459.56;;;-10.53;87.35
2188;BME280;1100;52.014;8.540;2022-12-18T04:39:24;101462.81;;;-10.51;87.62
2188;BME280;1100;52.014;8.540;2022-12-18T04:41:49;101464.41;;;-10.50;87.62
2188;BME280;1100;52.014;8.540;2022-12-18T04:44:14;101464.16;;;-10.48;87.29
2188;BME280;1100;52.014;8.540;2022-12-18T04:46:40;101468.19;;;-10.51;87.44
2188;BME280;1100;52.014;8.540;2022-12-18T04:49:05;101474.09;;;-10.54;87.58
2188;BME280;1100;52.014;8.540;2022-12-18T04:51:30;101468.16;;;-10.56;87.53
2188;BME280;1100;52.014;8.540;2022-12-18T04:53:56;101465.72;;;-10.58;87.77
2188;BME280;1100;52.014;8.540;2022-12-18T04:56:21;101468.41;;;-10.58;87.43
2188;BME280;1100;52.014;8.540;2022-12-18T04:58:47;101475.91;;;-10.60;87.91
2188;BME280;1100;52.014;8.540;2022-12-18T05:01:16;101460.06;;;-10.61;87.17
2188;BME280;1100;52.014;8.540;2022-12-18T05:03:42;101456.28;;;-10.66;87.43
2188;BME280;1100;52.014;8.540;2022-12-18T05:06:07;101453.03;;;-10.68;87.48
2188;BME280;1100;52.014;8.540;2022-12-18T05:08:33;101458.94;;;-10.71;87.32
2188;BME280;1100;52.014;8.540;2022-12-18T05:13:28;101453.00;;;-10.73;87.52
2188;BME280;1100;52.014;8.540;2022-12-18T05:15:54;101441.72;;;-10.75;87.14
2188;BME280;1100;52.014;8.540;2022-12-18T05:18:20;101426.13;;;-10.78;86.78
2188;BME280;1100;52.014;8.540;2022-12-18T05:20:45;101427.97;;;-10.79;87.20
2188;BME280;1100;52.014;8.540;2022-12-18T05:23:11;101421.00;;;-10.80;87.16
2188;BME280;1100;52.014;8.540;2022-12-18T05:25:36;101432.00;;;-10.81;87.26
2188;BME280;1100;52.014;8.540;2022-12-18T05:28:02;101420.16;;;-10.85;87.18
2188;BME280;1100;52.014;8.540;2022-12-18T05:30:27;101429.28;;;-10.86;86.79
2188;BME280;1100;52.014;8.540;2022-12-18T05:32:53;101432.78;;;-10.86;87.56
2188;BME280;1100;52.014;8.540;2022-12-18T05:35:18;101444.06;;;-10.84;87.32
2188;BME280;1100;52.014;8.540;2022-12-18T05:37:43;101447.84;;;-10.85;87.40
2188;BME280;1100;52.014;8.540;2022-12-18T05:40:09;101447.84;;;-10.85;87.38
2188;BME280;1100;52.014;8.540;2022-12-18T05:42:35;101444.59;;;-10.87;87.02
2188;BME280;1100;52.014;8.540;2022-12-18T05:45:00;101446.50;;;-10.82;87.37
2188;BME280;1100;52.014;8.540;2022-12-18T05:47:27;101430.66;;;-10.79;87.67
2188;BME280;1100;52.014;8.540;2022-12-18T05:49:53;101433.91;;;-10.77;86.95
2188;BME280;1100;52.014;8.540;2022-12-18T05:52:18;101434.44;;;-10.80;87.14
2188;BME280;1100;52.014;8.540;2022-12-18T05:54:43;101438.16;;;-10.81;87.89
2188;BME280;1100;52.014;8.540;2022-12-18T05:57:09;101437.38;;;-10.81;87.67
2188;BME280;1100;52.014;8.540;2022-12-18T05:59:35;101445.44;;;-10.81;87.50
2188;BME280;1100;52.014;8.540;2022-12-18T06:02:00;101444.06;;;-10.84;87.66
2188;BME280;1100;52.014;8.540;2022-12-18T06:04:29;101442.47;;;-10.85;87.22
2188;BME280;1100;52.014;8.540;2022-12-18T06:06:55;101446.22;;;-10.86;87.67
2188;BME280;1100;52.014;8.540;2022-12-18T06:09:20;101442.97;;;-10.88;86.86
2188;BME280;1100;52.014;8.540;2022-12-18T06:11:45;101444.59;;;-10.87;87.61
2188;BME280;1100;52.014;8.540;2022-12-18T06:14:11;101443.81;;;-10.88;87.16
2188;BME280;1100;52.014;8.540;2022-12-18T06:16:36;101448.63;;;-10.90;87.13
2188;BME280;1100;52.014;8.540;2022-12-18T06:19:03;101451.03;;;-10.88;87.40
2188;BME280;1100;52.014;8.540;2022-12-18T06:21:29;101456.41;;;-10.88;87.26
2188;BME280;1100;52.014;8.540;2022-12-18T06:23:54;101462.03;;;-10.90;87.61
2188;BME280;1100;52.014;8.540;2022-12-18T06:26:20;101462.56;;;-10.93;87.31
2188;BME280;1100;52.014;8.540;2022-12-18T06:28:45;101463.13;;;-10.91;87.57
2188;BME280;1100;52.014;8.540;2022-12-18T06:31:11;101469.59;;;-10.86;87.29
2188;BME280;1100;52.014;8.540;2022-12-18T06:33:37;101473.94;;;-10.80;87.91
2188;BME280;1100;52.014;8.540;2022-12-18T06:36:07;101474.75;;;-10.80;87.71
2188;BME280;1100;52.014;8.540;2022-12-18T06:38:34;101476.34;;;-10.79;86.98
2188;BME280;1100;52.014;8.540;2022-12-18T06:41:00;101484.13;;;-10.82;87.44
2188;BME280;1100;52.014;8.540;2022-12-18T06:43:30;101490.31;;;-10.82;87.41
2188;BME280;1100;52.014;8.540;2022-12-18T06:45:59;101488.97;;;-10.84;87.18
2188;BME280;1100;52.014;8.540;2022-12-18T06:48:25;101479.00;;;-10.84;88.04
2188;BME280;1100;52.014;8.540;2022-12-18T06:50:50;101478.75;;;-10.82;87.83
2188;BME280;1100;52.014;8.540;2022-12-18T06:53:15;101475.53;;;-10.84;87.18
2188;BME280;1100;52.014;8.540;2022-12-18T06:55:41;101480.91;;;-10.84;87.82
2188;BME280;1100;52.014;8.540;2022-12-18T06:58:06;101484.38;;;-10.84;87.76
2188;BME280;1100;52.014;8.540;2022-12-18T07:00:31;101484.38;;;-10.84;87.65
2188;BME280;1100;52.014;8.540;2022-12-18T07:02:57;101494.59;;;-10.86;86.80
2188;BME280;1100;52.014;8.540;2022-12-18T07:05:22;101493.22;;;-10.89;87.43
2188;BME280;1100;52.014;8.540;2022-12-18T07:07:48;101492.41;;;-10.89;87.19
2188;BME280;1100;52.014;8.540;2022-12-18T07:10:13;101480.03;;;-10.90;87.26
2188;BME280;1100;52.014;8.540;2022-12-18T07:12:38;101494.28;;;-10.90;87.28
2188;BME280;1100;52.014;8.540;2022-12-18T07:15:04;101494.53;;;-10.91;87.53
2188;BME280;1100;52.014;8.540;2022-12-18T07:17:29;101487.84;;;-10.89;87.63
2188;BME280;1100;52.014;8.540;2022-12-18T07:19:55;101490.25;;;-10.87;87.78
2188;BME280;1100;52.014;8.540;2022-12-18T07:22:20;101490.00;;;-10.85;87.27
2188;BME280;1100;52.014;8.540;2022-12-18T07:24:46;101488.41;;;-10.86;87.03
2188;BME280;1100;52.014;8.540;2022-12-18T07:27:11;101488.97;;;-10.84;87.72
2188;BME280;1100;52.014;8.540;2022-12-18T07:29:36;101484.94;;;-10.82;87.74
2188;BME280;1100;52.014;8.540;2022-12-18T07:32:02;101482.81;;;-10.80;87.70
2188;BME280;1100;52.014;8.540;2022-12-18T07:34:27;101480.66;;;-10.78;87.66
2188;BME280;1100;52.014;8.540;2022-12-18T07:36:52;101489.00;;;-10.74;87.61
2188;BME280;1100;52.014;8.540;2022-12-18T07:39:18;101486.59;;;-10.76;87.48
2188;BME280;1100;52.014;8.540;2022-12-18T07:41:43;101486.31;;;-10.74;87.70
2188;BME280;1100;52.014;8.540;2022-12-18T07:44:11;101488.75;;;-10.72;87.57
2188;BME280;1100;52.014;8.540;2022-12-18T07:46:37;101487.97;;;-10.68;87.50
2188;BME280;1100;52.014;8.540;2022-12-18T07:49:03;101493.38;;;-10.63;87.60
2188;BME280;1100;52.014;8.540;2022-12-18T07:51:28;101494.78;;;-10.55;87.97
2188;BME280;1100;52.014;8.540;2022-12-18T07:53:53;101484.56;;;-10.53;87.57
2188;BME280;1100;52.014;8.540;2022-12-18T07:56:20;101480.56;;;-10.45;87.14
2188;BME280;1100;52.014;8.540;2022-12-18T07:58:45;101480.03;;;-10.42;87.52
2188;BME280;1100;52.014;8.540;2022-12-18T08:01:12;101483.53;;;-10.36;87.69
2188;BME280;1100;52.014;8.540;2022-12-18T08:03:39;101484.34;;;-10.30;88.04
2188;BME280;1100;52.014;8.540;2022-12-18T08:06:07;101481.69;;;-10.25;87.77
2188;BME280;1100;52.014;8.540;2022-12-18T08:08:33;101479.81;;;-10.19;87.45
2188;BME280;1100;52.014;8.540;2022-12-18T08:10:59;101484.97;;;-10.13;87.99
2188;BME280;1100;52.014;8.540;2022-12-18T08:13:25;101485.25;;;-10.09;87.34
2188;BME280;1100;52.014;8.540;2022-12-18T08:16:07;101471.28;;;-10.01;87.52
2188;BME280;1100;52.014;8.540;2022-12-18T08:18:34;101474.28;;;-9.92;87.71
2188;BME280;1100;52.014;8.540;2022-12-18T08:21:14;101468.91;;;-9.81;87.33
2188;BME280;1100;52.014;8.540;2022-12-18T08:23:40;101463.81;;;-9.72;87.59
2188;BME280;1100;52.014;8.540;2022-12-18T08:26:06;101458.72;;;-9.64;87.16
2188;BME280;1100;52.014;8.540;2022-12-18T08:28:31;101465.97;;;-9.54;87.71
2188;BME280;1100;52.014;8.540;2022-12-18T08:30:56;101450.13;;;-9.45;87.81
2188;BME280;1100;52.014;8.540;2022-12-18T08:33:22;101446.34;;;-9.33;87.71
2188;BME280;1100;52.014;8.540;2022-12-18T08:35:47;101448.22;;;-9.13;87.72
2188;BME280;1100;52.014;8.540;2022-12-18T08:38:13;101449.22;;;-8.83;87.24
2188;BME280;1100;52.014;8.540;2022-12-18T08:40:38;101456.44;;;-8.57;87.09
2188;BME280;1100;52.014;8.540;2022-12-18T08:43:03;101452.69;;;-8.11;87.26
2188;BME280;1100;52.014;8.540;2022-12-18T08:45:47;101454.97;;;-7.78;87.05
2188;BME280;1100;52.014;8.540;2022-12-18T08:48:14;101446.59;;;-7.42;86.53
2188;BME280;1100;52.014;8.540;2022-12-18T08:50:39;101455.00;;;-7.14;86.46
2188;BME280;1100;52.014;8.540;2022-12-18T08:53:04;101459.75;;;-7.00;86.34
2188;BME280;1100;52.014;8.540;2022-12-18T08:55:30;101461.31;;;-6.94;86.01
2188;BME280;1100;52.014;8.540;2022-12-18T08:57:55;101456.41;;;-6.62;86.06
2188;BME280;1100;52.014;8.540;2022-12-18T09:00:21;101466.75;;;-6.45;85.83
2188;BME280;1100;52.014;8.540;2022-12-18T09:02:46;101449.50;;;-6.30;85.85
2188;BME280;1100;52.014;8.540;2022-12-18T09:05:12;101448.41;;;-6.29;86.39
2188;BME280;1100;52.014;8.540;2022-12-18T09:07:37;101441.06;;;-6.23;86.21
2188;BME280;1100;52.014;8.540;2022-12-18T09:10:03;101443.56;;;-6.32;86.16
2188;BME280;1100;52.014;8.540;2022-12-18T09:12:29;101456.44;;;-6.43;86.40
2188;BME280;1100;52.014;8.540;2022-12-18T09:14:54;101449.75;;;-6.51;86.35
2188;BME280;1100;52.014;8.540;2022-12-18T09:17:21;101447.91;;;-6.55;86.40
2188;BME280;1100;52.014;8.540;2022-12-18T09:19:46;101453.44;;;-6.66;86.64
2188;BME280;1100;52.014;8.540;2022-12-18T09:22:11;101451.94;;;-6.77;86.67
2188;BME280;1100;52.014;8.540;2022-12-18T09:24:37;101450.16;;;-6.87;87.66
2188;BME280;1100;52.014;8.540;2022-12-18T09:27:02;101455.34;;;-6.91;87.42
2188;BME280;1100;52.014;8.540;2022-12-18T09:29:27;101461.03;;;-6.92;87.16
2188;BME280;1100;52.014;8.540;2022-12-18T09:31:53;101457.75;;;-6.89;87.48
2188;BME280;1100;52.014;8.540;2022-12-18T09:34:19;101465.22;;;-6.81;87.59
2188;BME280;1100;52.014;8.540;2022-12-18T09:36:46;101452.75;;;-6.77;87.83
2188;BME280;1100;52.014;8.540;2022-12-18T09:39:12;101453.03;;;-6.78;87.80
2188;BME280;1100;52.014;8.540;2022-12-18T09:41:44;101444.66;;;-6.77;87.87
2188;BME280;1100;52.014;8.540;2022-12-18T09:46:45;101454.38;;;-6.76;88.07
2188;BME280;1100;52.014;8.540;2022-12-18T09:49:16;101459.47;;;-6.74;87.84
2188;BME280;1100;52.014;8.540;2022-12-18T09:51:52;101457.38;;;-6.53;87.32
2188;BME280;1100;52.014;8.540;2022-12-18T09:54:26;101447.34;;;-6.08;87.46
2188;BME280;1100;52.014;8.540;2022-12-18T09:56:56;101453.16;;;-5.63;87.28
2188;BME280;1100;52.014;8.540;2022-12-18T09:59:33;101462.47;;;-5.16;87.06
2188;BME280;1100;52.014;8.540;2022-12-18T10:02:12;101456.88;;;-4.92;86.55
2188;BME280;1100;52.014;8.540;2022-12-18T10:04:38;101450.94;;;-4.94;87.03
2188;BME280;1100;52.014;8.540;2022-12-18T10:07:15;101448.25;;;-4.94;86.90
2188;BME280;1100;52.014;8.540;2022-12-18T10:12:22;101456.38;;;-4.94;86.46
2188;BME280;1100;52.014;8.540;2022-12-18T10:20:21;101440.94;;;-4.79;86.52
2188;BME280;1100;52.014;8.540;2022-12-18T10:28:15;101399.25;;;-4.18;86.16
2188;BME280;1100;52.014;8.540;2022-12-18T10:30:42;101395.16;;;-3.93;86.42
2188;BME280;1100;52.014;8.540;2022-12-18T10:33:13;101393.13;;;-3.87;86.71
2188;BME280;1100;52.014;8.540;2022-12-18T10:35:41;101386.34;;;-3.76;86.89
2188;BME280;1100;52.014;8.540;2022-12-18T10:40:57;101378.94;;;-3.61;87.30
2188;BME280;1100;52.014;8.540;2022-12-18T10:43:35;101371.63;;;-3.52;87.52
2188;BME280;1100;52.014;8.540;2022-12-18T10:48:26;101358.09;;;-3.02;87.11
2188;BME280;1100;52.014;8.540;2022-12-18T10:50:53;101377.22;;;-2.84;87.49
2188;BME280;1100;52.014;8.540;2022-12-18T10:53:23;101374.50;;;-2.84;87.54
2188;BME280;1100;52.014;8.540;2022-12-18T10:55:52;101370.16;;;-2.85;87.91
2188;BME280;1100;52.014;8.540;2022-12-18T11:01:08;101365.06;;;-2.78;88.24
2188;BME280;1100;52.014;8.540;2022-12-18T11:03:35;101361.22;;;-2.77;88.53
2188;BME280;1100;52.014;8.540;2022-12-18T11:06:15;101341.03;;;-2.76;88.32
2188;BME280;1100;52.014;8.540;2022-12-18T11:08:46;101336.91;;;-2.73;88.50
2188;BME280;1100;52.014;8.540;2022-12-18T11:11:23;101337.53;;;-2.68;88.56
2188;BME280;1100;52.014;8.540;2022-12-18T11:14:02;101339.16;;;-2.67;88.67
2188;BME280;1100;52.014;8.540;2022-12-18T11:16:30;101328.56;;;-2.68;88.57
2188;BME280;1100;52.014;8.540;2022-12-18T11:19:34;101319.63;;;-2.69;88.44
2188;BME280;1100;52.014;8.540;2022-12-18T11:22:02;101313.03;;;-2.68;88.71
2188;BME280;1100;52.014;8.540;2022-12-18T11:24:33;101300.06;;;-2.71;88.54
2188;BME280;1100;52.014;8.540;2022-12-18T11:27:02;101291.41;;;-2.73;88.89
2188;BME280;1100;52.014;8.540;2022-12-18T11:29:39;101295.09;;;-2.69;88.86
2188;BME280;1100;52.014;8.540;2022-12-18T11:37:29;101295.75;;;-2.63;88.87
2188;BME280;1100;52.014;8.540;2022-12-18T11:39:59;101288.88;;;-2.60;88.87
2188;BME280;1100;52.014;8.540;2022-12-18T11:50:24;101275.09;;;-2.55;88.79
2188;BME280;1100;52.014;8.540;2022-12-18T11:52:50;101275.59;;;-2.53;88.83
2188;BME280;1100;52.014;8.540;2022-12-18T11:57:57;101276.41;;;-2.53;89.03
2188;BME280;1100;52.014;8.540;2022-12-18T12:00:25;101270.63;;;-2.51;88.78
2188;BME280;1100;52.014;8.540;2022-12-18T12:03:06;101276.53;;;-2.49;88.68
2188;BME280;1100;52.014;8.540;2022-12-18T12:09:11;101260.69;;;-2.47;88.91
2188;BME280;1100;52.014;8.540;2022-12-18T12:14:47;101258.94;;;-2.52;88.85
2188;BME280;1100;52.014;8.540;2022-12-18T12:25:31;101231.84;;;-2.57;88.69
2188;BME280;1100;52.014;8.540;2022-12-18T12:30:43;101229.63;;;-2.64;88.67
2188;BME280;1100;52.014;8.540;2022-12-18T12:33:35;101223.38;;;-2.64;88.69
2188;BME280;1100;52.014;8.540;2022-12-18T12:39:10;101224.63;;;-2.61;88.83
2188;BME280;1100;52.014;8.540;2022-12-18T12:41:38;101233.78;;;-2.57;88.86
2188;BME280;1100;52.014;8.540;2022-12-18T12:44:30;101238.09;;;-2.56;88.75
2188;BME280;1100;52.014;8.540;2022-12-18T12:47:00;101232.16;;;-2.58;88.72
2188;BME280;1100;52.014;8.540;2022-12-18T12:49:31;101240.34;;;-2.58;88.71
2188;BME280;1100;52.014;8.540;2022-12-18T12:52:04;101231.22;;;-2.63;88.65
2188;BME280;1100;52.014;8.540;2022-12-18T12:54:32;101238.25;;;-2.61;88.89
2188;BME280;1100;52.014;8.540;2022-12-18T13:07:51;101212.47;;;-2.64;88.90
2188;BME280;1100;52.014;8.540;2022-12-18T13:20:34;101189.59;;;-2.54;88.89
2188;BME280;1100;52.014;8.540;2022-12-18T13:23:29;101185.25;;;-2.55;88.70
2188;BME280;1100;52.014;8.540;2022-12-18T13:25:55;101175.47;;;-2.56;88.79
2188;BME280;1100;52.014;8.540;2022-12-18T13:30:52;101164.88;;;-2.49;89.00
2188;BME280;1100;52.014;8.540;2022-12-18T13:33:37;101160.25;;;-2.48;89.03
2188;BME280;1100;52.014;8.540;2022-12-18T13:36:19;101143.59;;;-2.47;89.23
2188;BME280;1100;52.014;8.540;2022-12-18T13:39:09;101139.41;;;-2.44;89.16
2188;BME280;1100;52.014;8.540;2022-12-18T13:41:34;101139.09;;;-2.43;88.99
2188;BME280;1100;52.014;8.540;2022-12-18T13:44:13;101141.81;;;-2.43;89.01
2188;BME280;1100;52.014;8.540;2022-12-18T13:46:48;101147.75;;;-2.41;89.17
2188;BME280;1100;52.014;8.540;2022-12-18T13:49:41;101149.34;;;-2.40;89.02
2188;BME280;1100;52.014;8.540;2022-12-18T13:52:20;101151.28;;;-2.40;89.02
2188;BME280;1100;52.014;8.540;2022-12-18T13:54:52;101147.91;;;-2.46;88.96
2188;BME280;1100;52.014;8.540;2022-12-18T13:57:28;101144.25;;;-2.50;88.95
2188;BME280;1100;52.014;8.540;2022-12-18T13:59:54;101141.84;;;-2.52;88.85
2188;BME280;1100;52.014;8.540;2022-12-18T14:02:22;101137.84;;;-2.54;88.86
2188;BME280;1100;52.014;8.540;2022-12-18T14:04:49;101128.72;;;-2.58;88.92
2188;BME280;1100;52.014;8.540;2022-12-18T14:09:47;101124.06;;;-2.58;89.07
2188;BME280;1100;52.014;8.540;2022-12-18T14:12:33;101121.66;;;-2.59;89.22
2188;BME280;1100;52.014;8.540;2022-12-18T14:18:24;101140.88;;;-2.65;88.78
2188;BME280;1100;52.014;8.540;2022-12-18T14:20:53;101144.91;;;-2.71;88.83
2188;BME280;1100;52.014;8.540;2022-12-18T14:23:36;101141.22;;;-2.75;89.02
2188;BME280;1100;52.014;8.540;2022-12-18T14:26:20;101134.16;;;-2.76;88.92
2188;BME280;1100;52.014;8.540;2022-12-18T14:28:45;101130.50;;;-2.80;88.84
2188;BME280;1100;52.014;8.540;2022-12-18T14:31:25;101144.91;;;-2.80;89.06
2188;BME280;1100;52.014;8.540;2022-12-18T14:33:52;101118.34;;;-2.83;88.81
2188;BME280;1100;52.014;8.540;2022-12-18T14:36:28;101133.88;;;-2.83;88.62
2188;BME280;1100;52.014;8.540;2022-12-18T14:38:58;101115.94;;;-2.84;88.91
2188;BME280;1100;52.014;8.540;2022-12-18T14:41:25;101125.22;;;-2.85;88.86
2188;BME280;1100;52.014;8.540;2022-12-18T14:43:52;101112.72;;;-2.86;88.66
2188;BME280;1100;52.014;8.540;2022-12-18T14:48:55;101115.28;;;-2.90;89.07
2188;BME280;1100;52.014;8.540;2022-12-18T14:51:23;101118.34;;;-2.92;88.77
2188;BME280;1100;52.014;8.540;2022-12-18T14:54:00;101122.81;;;-2.96;88.61
2188;BME280;1100;52.014;8.540;2022-12-18T14:59:43;101110.50;;;-2.93;89.17
2188;BME280;1100;52.014;8.540;2022-12-18T15:02:04;101106.16;;;-2.85;89.25
2188;BME280;1100;52.014;8.540;2022-12-18T15:04:38;101096.72;;;-2.79;89.09
2188;BME280;1100;52.014;8.540;2022-12-18T15:07:12;101103.25;;;-2.63;89.37
2188;BME280;1100;52.014;8.540;2022-12-18T15:09:41;101110.59;;;-2.45;89.67
2188;BME280;1100;52.014;8.540;2022-12-18T15:12:24;101112.94;;;-2.35;89.26